createdAt,value
2019-02-14T00:00:23.793Z,37.65
2019-02-14T00:02:52.747Z,37.35
2019-02-14T00:05:20.946Z,37.35
2019-02-14T00:07:49.567Z,37.43
2019-02-14T00:10:19.429Z,37.24
2019-02-14T00:12:48.068Z,37.09
2019-02-14T00:15:15.958Z,37.24
2019-02-14T00:17:48.037Z,36.52
2019-02-14T00:20:16.459Z,37.15
2019-02-14T00:22:45.311Z,37.15
2019-02-14T00:25:13.359Z,37.40
2019-02-14T00:27:41.974Z,37.32
2019-02-14T00:30:10.359Z,37.32
2019-02-14T00:32:39.394Z,37.46
2019-02-14T00:35:08.086Z,37.37
2019-02-14T00:37:36.456Z,37.55
2019-02-14T00:40:04.472Z,37.64
2019-02-14T00:42:33.356Z,37.63
2019-02-14T00:45:01.739Z,37.50
2019-02-14T00:47:30.720Z,36.92
2019-02-14T00:49:59.375Z,36.92
2019-02-14T00:52:28.037Z,36.54
2019-02-14T00:54:57.741Z,37.05
2019-02-14T00:57:26.347Z,36.80
2019-02-14T00:59:54.919Z,36.78
2019-02-14T01:02:23.762Z,37.53
2019-02-14T01:04:52.790Z,37.39
2019-02-14T01:07:21.067Z,37.34
2019-02-14T01:09:50.217Z,37.48
2019-02-14T01:12:19.227Z,37.55
2019-02-14T01:14:48.598Z,37.35
2019-02-14T01:17:17.030Z,37.51
2019-02-14T01:19:47.882Z,37.76
2019-02-14T01:22:16.482Z,37.54
2019-02-14T01:24:44.904Z,37.32
2019-02-14T01:27:13.306Z,37.29
2019-02-14T01:29:41.716Z,36.79
2019-02-14T01:32:09.491Z,36.70
2019-02-14T01:34:37.099Z,36.59
2019-02-14T01:37:04.848Z,36.50
2019-02-14T01:39:33.724Z,36.40
2019-02-14T01:42:01.753Z,37.06
2019-02-14T01:44:30.766Z,37.12
2019-02-14T01:46:58.484Z,37.44
2019-02-14T01:51:44.226Z,37.23
2019-02-14T01:54:12.300Z,37.30
2019-02-14T01:56:40.196Z,37.49
2019-02-14T01:59:08.338Z,37.26
2019-02-14T02:01:55.462Z,37.41
2019-02-14T02:04:23.699Z,37.53
2019-02-14T02:06:50.835Z,36.90
2019-02-14T02:09:18.929Z,36.87
2019-02-14T02:11:47.724Z,36.50
2019-02-14T02:14:16.729Z,36.53
2019-02-14T02:16:45.312Z,36.44
2019-02-14T02:19:12.932Z,36.55
2019-02-14T02:21:41.053Z,37.04
2019-02-14T02:24:08.353Z,37.19
2019-02-14T02:26:36.183Z,37.15
2019-02-14T02:29:03.545Z,37.37
2019-02-14T02:31:31.130Z,37.30
2019-02-14T02:33:58.643Z,37.30
2019-02-14T02:36:26.043Z,37.09
2019-02-14T02:38:54.130Z,37.53
2019-02-14T02:41:21.245Z,37.30
2019-02-14T02:44:09.107Z,37.32
2019-02-14T02:46:37.071Z,37.32
2019-02-14T02:49:05.134Z,36.71
2019-02-14T02:51:32.251Z,36.61
2019-02-14T02:53:59.406Z,36.42
2019-02-14T02:56:26.546Z,36.17
2019-02-14T02:58:53.701Z,36.90
2019-02-14T03:01:20.817Z,37.28
2019-02-14T03:03:48.134Z,37.06
2019-02-14T03:06:15.536Z,37.31
2019-02-14T03:08:43.193Z,37.29
2019-02-14T03:11:10.322Z,37.31
2019-02-14T03:13:37.437Z,37.52
2019-02-14T03:16:04.529Z,37.50
2019-02-14T03:18:31.975Z,37.32
2019-02-14T03:20:59.399Z,37.51
2019-02-14T03:23:26.506Z,37.69
2019-02-14T03:25:54.157Z,37.68
2019-02-14T03:28:21.574Z,37.21
2019-02-14T03:30:49.102Z,37.12
2019-02-14T03:33:16.150Z,36.91
2019-02-14T03:35:43.331Z,36.65
2019-02-14T03:38:10.540Z,36.72
2019-02-14T03:40:37.979Z,36.41
2019-02-14T03:43:05.444Z,36.16
2019-02-14T03:45:32.635Z,36.77
2019-02-14T03:47:59.817Z,37.12
2019-02-14T03:50:27.508Z,37.25
2019-02-14T03:52:54.724Z,37.25
2019-02-14T03:55:22.005Z,37.39
2019-02-14T03:57:49.215Z,37.22
2019-02-14T04:00:16.536Z,37.62
2019-02-14T04:02:43.720Z,37.52
2019-02-14T04:05:10.883Z,37.25
2019-02-14T04:07:38.117Z,37.50
2019-02-14T04:10:06.699Z,37.54
2019-02-14T04:12:34.912Z,37.48
2019-02-14T04:15:02.987Z,37.41
2019-02-14T04:17:30.421Z,37.22
2019-02-14T04:19:57.890Z,36.85
2019-02-14T04:22:25.105Z,36.60
2019-02-14T04:24:54.479Z,36.35
2019-02-14T04:27:22.204Z,36.31
2019-02-14T04:29:50.607Z,36.15
2019-02-14T04:32:19.127Z,37.02
2019-02-14T04:34:47.242Z,36.87
2019-02-14T04:37:15.745Z,37.03
2019-02-14T04:39:44.300Z,36.99
2019-02-14T04:42:15.102Z,36.99
2019-02-14T04:44:43.333Z,37.23
2019-02-14T04:47:12.727Z,37.33
2019-02-14T04:49:42.000Z,37.19
2019-02-14T04:52:10.281Z,37.37
2019-02-14T04:54:39.312Z,36.94
2019-02-14T04:57:08.276Z,36.70
2019-02-14T04:59:37.214Z,36.63
2019-02-14T05:02:08.707Z,36.39
2019-02-14T05:06:13.847Z,37.03
2019-02-14T05:08:42.126Z,36.84
2019-02-14T05:11:09.872Z,36.64
2019-02-14T05:13:38.552Z,36.28
2019-02-14T05:16:05.823Z,36.15
2019-02-14T05:18:33.057Z,36.11
2019-02-14T05:21:00.978Z,35.82
2019-02-14T05:23:29.223Z,35.82
2019-02-14T05:25:56.658Z,36.39
2019-02-14T05:28:23.929Z,36.65
2019-02-14T05:30:52.320Z,36.68
2019-02-14T05:33:20.378Z,36.67
2019-02-14T05:35:48.802Z,36.75
2019-02-14T05:38:17.134Z,36.86
2019-02-14T05:40:46.051Z,37.05
2019-02-14T05:43:13.379Z,36.87
2019-02-14T05:45:41.553Z,36.88
2019-02-14T05:48:09.629Z,36.90
2019-02-14T05:50:37.386Z,36.69
2019-02-14T05:53:04.606Z,36.83
2019-02-14T05:55:32.407Z,36.38
2019-02-14T05:57:59.989Z,36.33
2019-02-14T06:00:28.446Z,36.13
2019-02-14T06:02:55.757Z,36.22
2019-02-14T06:05:23.023Z,36.06
2019-02-14T06:07:50.282Z,36.36
2019-02-14T06:10:17.597Z,36.58
2019-02-14T06:13:05.033Z,36.38
2019-02-14T06:15:32.532Z,36.60
2019-02-14T06:18:00.009Z,36.79
2019-02-14T06:20:27.277Z,36.95
2019-02-14T06:22:54.512Z,36.72
2019-02-14T06:25:21.750Z,36.93
2019-02-14T06:27:50.730Z,37.12
2019-02-14T06:30:18.286Z,36.53
2019-02-14T06:32:45.497Z,36.53
2019-02-14T06:35:13.082Z,35.20
2019-02-14T06:37:40.304Z,33.93
2019-02-14T06:40:09.204Z,35.54
2019-02-14T06:42:37.041Z,36.24
2019-02-14T06:47:47.436Z,35.71
2019-02-14T06:50:14.775Z,36.11
2019-02-14T06:52:43.207Z,36.11
2019-02-14T06:55:10.791Z,36.29
2019-02-14T06:57:38.976Z,36.93
2019-02-14T07:00:09.092Z,37.09
2019-02-14T07:02:37.241Z,37.42
2019-02-14T07:05:06.054Z,37.52
2019-02-14T07:07:33.886Z,37.77
2019-02-14T07:10:02.190Z,37.86
2019-02-14T07:12:29.410Z,38.11
2019-02-14T07:14:57.199Z,38.47
2019-02-14T07:17:24.834Z,38.45
2019-02-14T07:19:53.114Z,38.78
2019-02-14T07:22:21.016Z,38.80
2019-02-14T07:24:49.705Z,38.58
2019-02-14T07:27:16.929Z,38.54
2019-02-14T07:29:44.487Z,38.69
2019-02-14T07:32:12.759Z,37.81
2019-02-14T07:34:40.363Z,37.99
2019-02-14T07:37:08.641Z,38.05
2019-02-14T07:39:37.082Z,37.46
2019-02-14T07:42:05.243Z,37.63
2019-02-14T07:44:33.300Z,38.03
2019-02-14T07:47:01.032Z,37.77
2019-02-14T07:50:04.791Z,37.24
2019-02-14T07:52:32.452Z,37.22
2019-02-14T07:55:00.419Z,37.25
2019-02-14T07:57:28.054Z,37.10
2019-02-14T07:59:55.471Z,37.37
2019-02-14T08:02:23.093Z,37.94
2019-02-14T08:04:50.556Z,37.53
2019-02-14T08:07:18.822Z,37.50
2019-02-14T08:09:47.351Z,37.08
2019-02-14T08:12:15.176Z,37.08
2019-02-14T08:14:43.225Z,37.31
2019-02-14T08:17:10.998Z,36.99
2019-02-14T08:19:39.408Z,36.71
2019-02-14T08:22:07.053Z,36.43
2019-02-14T08:24:34.702Z,36.37
2019-02-14T08:27:02.568Z,35.79
2019-02-14T08:29:30.946Z,35.47
2019-02-14T08:31:58.821Z,35.40
2019-02-14T08:34:27.488Z,35.79
2019-02-14T08:36:56.198Z,36.07
2019-02-14T08:39:23.455Z,36.07
2019-02-14T08:41:51.131Z,36.62
2019-02-14T08:44:18.657Z,36.58
2019-02-14T08:46:46.700Z,36.58
2019-02-14T08:49:15.124Z,36.65
2019-02-14T08:51:42.872Z,37.51
2019-02-14T08:54:10.884Z,37.51
2019-02-14T08:56:38.216Z,37.09
2019-02-14T08:59:05.753Z,37.49
2019-02-14T09:01:33.391Z,37.00
2019-02-14T09:04:00.629Z,37.30
2019-02-14T09:06:28.559Z,37.11
2019-02-14T09:08:56.121Z,36.73
2019-02-14T09:11:23.942Z,36.84
2019-02-14T09:13:51.423Z,36.78
2019-02-14T09:16:19.078Z,36.56
2019-02-14T09:18:46.368Z,36.36
2019-02-14T09:21:13.929Z,36.73
2019-02-14T09:23:41.890Z,35.71
2019-02-14T09:26:10.589Z,36.34
2019-02-14T09:28:39.278Z,36.53
2019-02-14T09:31:08.258Z,36.87
2019-02-14T09:33:37.335Z,36.50
2019-02-14T09:36:06.087Z,36.52
2019-02-14T09:38:34.659Z,36.21
2019-02-14T09:41:03.246Z,35.81
2019-02-14T09:43:31.430Z,35.92
2019-02-14T09:46:00.775Z,35.94
2019-02-14T09:48:29.444Z,36.18
2019-02-14T09:50:58.159Z,36.08
2019-02-14T09:53:26.569Z,36.23
2019-02-14T09:55:54.463Z,36.23
2019-02-14T09:58:22.787Z,36.17
2019-02-14T10:00:51.097Z,35.62
2019-02-14T10:03:20.901Z,35.26
2019-02-14T10:05:49.574Z,35.84
2019-02-14T10:08:18.374Z,35.80
2019-02-14T10:10:46.943Z,35.66
2019-02-14T10:13:15.280Z,36.03
2019-02-14T10:15:43.940Z,36.15
2019-02-14T10:18:12.499Z,36.17
2019-02-14T10:20:40.997Z,36.21
2019-02-14T10:23:09.043Z,36.39
2019-02-14T10:25:37.373Z,36.09
2019-02-14T10:28:05.399Z,36.32
2019-02-14T10:30:34.324Z,36.35
2019-02-14T10:33:02.855Z,36.51
2019-02-14T10:35:30.914Z,36.65
2019-02-14T10:38:00.076Z,36.85
2019-02-14T10:40:28.384Z,37.01
2019-02-14T10:42:57.359Z,35.92
2019-02-14T10:45:26.061Z,36.97
2019-02-14T10:47:54.156Z,37.18
2019-02-14T10:50:23.028Z,37.19
2019-02-14T10:52:51.926Z,36.86
2019-02-14T10:55:20.472Z,36.69
2019-02-14T10:57:48.707Z,37.71
2019-02-14T11:00:19.517Z,37.06
2019-02-14T11:02:49.100Z,36.91
2019-02-14T11:05:19.451Z,37.01
2019-02-14T11:07:48.157Z,36.37
2019-02-14T11:10:16.328Z,36.37
2019-02-14T11:12:45.181Z,28.46
2019-02-14T11:15:15.561Z,26.52
2019-02-14T11:17:45.026Z,25.62
2019-02-14T11:20:13.806Z,25.17
2019-02-14T11:22:43.293Z,24.31
2019-02-14T11:25:17.330Z,23.60
2019-02-14T11:27:45.496Z,22.83
2019-02-14T11:30:13.763Z,23.43
2019-02-14T11:32:42.914Z,23.34
2019-02-14T11:35:12.149Z,23.34
2019-02-14T11:37:40.823Z,22.77
2019-02-14T11:40:10.691Z,22.72
2019-02-14T11:42:39.202Z,22.01
2019-02-14T11:45:11.575Z,22.11
2019-02-14T11:50:08.928Z,23.72
2019-02-14T11:52:37.373Z,24.60
2019-02-14T11:55:06.400Z,25.68
2019-02-14T11:57:35.461Z,25.50
2019-02-14T12:00:05.599Z,26.00
2019-02-14T12:02:34.470Z,27.17
2019-02-14T12:05:03.740Z,27.90
2019-02-14T12:07:31.937Z,27.90
2019-02-14T12:09:59.952Z,28.22
2019-02-14T12:12:28.349Z,27.68
2019-02-14T12:14:57.313Z,27.49
2019-02-14T12:17:25.621Z,28.14
2019-02-14T12:19:55.055Z,28.55
2019-02-14T12:22:22.889Z,28.60
2019-02-14T12:24:52.324Z,28.60
2019-02-14T12:27:21.847Z,29.16
2019-02-14T12:29:49.732Z,29.16
2019-02-14T12:32:18.663Z,29.16
2019-02-14T12:34:48.334Z,29.73
2019-02-14T12:37:16.913Z,29.73
2019-02-14T12:39:45.479Z,29.75
2019-02-14T12:42:15.107Z,30.09
2019-02-14T12:44:44.264Z,30.05
2019-02-14T12:47:12.724Z,30.23
2019-02-14T12:49:41.266Z,30.32
2019-02-14T12:52:09.189Z,30.48
2019-02-14T12:54:37.175Z,30.47
2019-02-14T12:57:05.929Z,30.97
2019-02-14T12:59:36.098Z,30.97
2019-02-14T13:02:04.768Z,30.77
2019-02-14T13:04:33.269Z,31.01
2019-02-14T13:07:01.578Z,30.82
2019-02-14T13:09:31.021Z,31.01
2019-02-14T13:12:00.633Z,31.05
2019-02-14T13:14:29.798Z,30.90
2019-02-14T13:16:58.938Z,30.41
2019-02-14T13:19:27.828Z,30.79
2019-02-14T13:21:56.458Z,30.31
2019-02-14T13:24:25.065Z,30.85
2019-02-14T13:26:55.195Z,30.83
2019-02-14T13:29:23.013Z,30.82
2019-02-14T13:31:51.122Z,30.84
2019-02-14T13:34:19.646Z,30.89
2019-02-14T13:36:47.763Z,30.79
2019-02-14T13:39:15.823Z,30.82
2019-02-14T13:41:44.098Z,30.60
2019-02-14T13:44:12.635Z,30.60
2019-02-14T13:46:40.483Z,29.70
2019-02-14T13:49:08.914Z,28.89
2019-02-14T13:51:37.142Z,28.65
2019-02-14T13:54:06.003Z,29.05
2019-02-14T13:56:35.540Z,28.77
2019-02-14T13:59:04.208Z,25.41
2019-02-14T14:01:32.231Z,24.55
2019-02-14T14:04:01.511Z,23.98
2019-02-14T14:06:30.473Z,23.48
2019-02-14T14:08:58.501Z,22.90
2019-02-14T14:11:26.282Z,22.67
2019-02-14T14:13:54.297Z,22.66
2019-02-14T14:16:22.605Z,22.47
2019-02-14T14:18:51.293Z,21.90
2019-02-14T14:21:19.108Z,21.54
2019-02-14T14:23:47.558Z,21.66
2019-02-14T14:26:15.464Z,21.84
2019-02-14T14:29:16.417Z,21.77
2019-02-14T14:31:43.623Z,21.74
2019-02-14T14:34:11.420Z,21.60
2019-02-14T14:36:39.869Z,21.53
2019-02-14T14:39:07.435Z,21.55
2019-02-14T14:41:34.663Z,21.58
2019-02-14T14:44:14.385Z,21.53
2019-02-14T14:47:02.457Z,21.86
2019-02-14T14:49:29.959Z,21.79
2019-02-14T14:51:57.886Z,21.86
2019-02-14T14:54:25.797Z,21.68
2019-02-14T14:56:53.189Z,21.74
2019-02-14T14:59:21.111Z,21.65
2019-02-14T15:01:48.951Z,21.89
2019-02-14T15:04:16.841Z,21.90
2019-02-14T15:06:44.671Z,22.18
2019-02-14T15:09:12.533Z,22.26
2019-02-14T15:11:41.006Z,22.87
2019-02-14T15:16:24.359Z,24.74
2019-02-14T15:18:52.242Z,25.21
2019-02-14T15:21:20.432Z,25.51
2019-02-14T15:23:48.061Z,25.55
2019-02-14T15:26:15.279Z,24.74
2019-02-14T15:28:42.800Z,24.70
2019-02-14T15:31:10.648Z,24.93
2019-02-14T15:33:42.903Z,25.58
2019-02-14T15:36:10.117Z,26.35
2019-02-14T15:38:37.364Z,26.24
2019-02-14T15:41:05.173Z,26.50
2019-02-14T15:43:33.753Z,26.87
2019-02-14T15:46:01.726Z,26.64
2019-02-14T15:48:28.938Z,27.22
2019-02-14T15:50:56.685Z,27.17
2019-02-14T15:53:25.835Z,27.28
2019-02-14T15:55:53.810Z,26.84
2019-02-14T15:58:21.659Z,28.06
2019-02-14T16:00:49.975Z,28.27
2019-02-14T16:03:19.626Z,28.52
2019-02-14T16:05:46.943Z,28.61
2019-02-14T16:08:15.521Z,28.87
2019-02-14T16:10:58.811Z,29.14
2019-02-14T16:13:29.136Z,29.27
2019-02-14T16:15:58.767Z,29.32
2019-02-14T16:18:27.249Z,29.11
2019-02-14T16:20:54.502Z,29.54
2019-02-14T16:23:23.715Z,29.77
2019-02-14T16:27:35.274Z,29.82
2019-02-14T16:30:02.631Z,29.82
2019-02-14T16:32:32.213Z,30.24
2019-02-14T16:35:00.931Z,30.19
2019-02-14T16:37:28.777Z,30.45
2019-02-14T16:39:56.877Z,30.55
2019-02-14T16:42:26.256Z,30.47
2019-02-14T16:44:54.212Z,30.48
2019-02-14T16:47:21.515Z,30.63
2019-02-14T16:49:49.380Z,30.77
2019-02-14T16:52:17.506Z,30.77
2019-02-14T16:54:46.073Z,31.06
2019-02-14T16:57:13.920Z,31.97
2019-02-14T16:59:41.721Z,31.97
2019-02-14T17:02:09.493Z,31.73
2019-02-14T17:04:36.805Z,32.08
2019-02-14T17:07:04.396Z,32.08
2019-02-14T17:09:32.653Z,31.90
2019-02-14T17:12:00.056Z,31.71
2019-02-14T17:14:27.879Z,32.05
2019-02-14T17:16:56.029Z,30.99
2019-02-14T17:19:23.804Z,31.16
2019-02-14T17:21:51.793Z,30.80
2019-02-14T17:24:19.878Z,30.67
2019-02-14T17:26:48.151Z,30.65
2019-02-14T17:29:15.984Z,31.00
2019-02-14T17:31:44.145Z,31.15
2019-02-14T17:34:12.050Z,31.20
2019-02-14T17:36:41.954Z,31.23
2019-02-14T17:39:09.352Z,31.26
2019-02-14T17:41:37.480Z,31.91
2019-02-14T17:44:05.361Z,32.35
2019-02-14T17:46:33.039Z,32.50
2019-02-14T17:49:01.313Z,32.21
2019-02-14T17:51:29.780Z,32.04
2019-02-14T17:53:57.842Z,31.86
2019-02-14T17:56:26.086Z,31.63
2019-02-14T17:58:53.498Z,31.32
2019-02-14T18:01:21.034Z,31.17
2019-02-14T18:03:48.661Z,31.02
2019-02-14T18:06:16.268Z,31.96
2019-02-14T18:08:43.518Z,32.47
2019-02-14T18:11:11.472Z,32.04
2019-02-14T18:15:10.144Z,31.99
2019-02-14T18:17:37.389Z,31.70
2019-02-14T18:20:05.803Z,31.87
2019-02-14T18:22:33.044Z,31.69
2019-02-14T18:25:00.252Z,33.06
2019-02-14T18:27:27.506Z,33.59
2019-02-14T18:29:55.499Z,34.40
2019-02-14T18:32:23.374Z,34.44
2019-02-14T18:34:51.234Z,33.28
2019-02-14T18:37:18.812Z,33.24
2019-02-14T18:39:46.885Z,33.04
2019-02-14T18:42:15.347Z,32.99
2019-02-14T18:44:42.874Z,32.96
2019-02-14T18:47:10.670Z,33.16
2019-02-14T18:49:38.434Z,33.27
2019-02-14T18:52:06.161Z,33.36
2019-02-14T18:54:33.416Z,32.91
2019-02-14T18:57:01.535Z,32.91
2019-02-14T18:59:29.764Z,33.13
2019-02-14T19:01:59.014Z,33.43
2019-02-14T19:04:27.849Z,33.36
2019-02-14T19:06:56.650Z,33.06
2019-02-14T19:09:25.623Z,33.08
2019-02-14T19:11:53.904Z,33.78
2019-02-14T19:14:21.782Z,34.00
2019-02-14T19:16:50.364Z,34.05
2019-02-14T19:19:18.287Z,34.34
2019-02-14T19:21:47.117Z,34.34
2019-02-14T19:24:15.585Z,34.06
2019-02-14T19:26:46.919Z,33.92
2019-02-14T19:29:15.271Z,33.94
2019-02-14T19:31:45.757Z,33.93
2019-02-14T19:34:14.115Z,33.95
2019-02-14T19:36:42.466Z,33.69
2019-02-14T19:39:10.366Z,33.75
2019-02-14T19:41:38.523Z,33.46
2019-02-14T19:44:07.712Z,33.52
2019-02-14T19:46:36.010Z,33.50
2019-02-14T19:49:04.768Z,33.34
2019-02-14T19:51:33.218Z,33.92
2019-02-14T19:54:01.646Z,34.10
2019-02-14T19:56:30.880Z,34.05
2019-02-14T19:59:00.961Z,34.67
2019-02-14T20:01:29.921Z,34.16
2019-02-14T20:03:58.412Z,34.26
2019-02-14T20:06:27.339Z,34.34
2019-02-14T20:08:55.552Z,34.39
2019-02-14T20:11:23.450Z,34.29
2019-02-14T20:13:51.928Z,34.44
2019-02-14T20:16:20.707Z,34.24
2019-02-14T20:18:48.922Z,34.17
2019-02-14T20:21:21.329Z,34.07
2019-02-14T20:23:50.351Z,33.70
2019-02-14T20:26:19.077Z,33.94
2019-02-14T20:28:47.647Z,33.89
2019-02-14T20:31:16.399Z,34.53
2019-02-14T20:33:44.188Z,34.42
2019-02-14T20:36:12.464Z,34.53
2019-02-14T20:38:42.267Z,34.53
2019-02-14T20:41:11.251Z,34.91
2019-02-14T20:43:40.003Z,34.91
2019-02-14T20:46:09.335Z,34.67
2019-02-14T20:48:37.926Z,34.72
2019-02-14T20:51:05.962Z,34.83
2019-02-14T20:53:34.893Z,34.57
2019-02-14T20:56:04.342Z,34.57
2019-02-14T20:58:33.181Z,34.45
2019-02-14T21:01:04.224Z,34.29
2019-02-14T21:03:32.919Z,34.21
2019-02-14T21:06:02.102Z,34.33
2019-02-14T21:08:31.104Z,34.72
2019-02-14T21:10:59.648Z,35.28
2019-02-14T21:13:27.921Z,35.21
2019-02-14T21:15:57.220Z,35.40
2019-02-14T21:18:25.550Z,35.24
2019-02-14T21:20:54.194Z,35.33
2019-02-14T21:23:22.955Z,35.04
2019-02-14T21:25:51.445Z,35.18
2019-02-14T21:28:19.528Z,35.50
2019-02-14T21:30:47.836Z,35.95
2019-02-14T21:33:17.587Z,36.28
2019-02-14T21:35:45.867Z,35.19
2019-02-14T21:38:13.912Z,35.69
2019-02-14T21:40:42.925Z,35.68
2019-02-14T21:43:12.000Z,35.50
2019-02-14T21:45:40.812Z,35.24
2019-02-14T21:48:09.504Z,34.58
2019-02-14T21:50:37.761Z,35.17
2019-02-14T21:53:05.998Z,35.25
2019-02-14T21:55:34.522Z,35.30
2019-02-14T21:58:04.994Z,35.30
2019-02-14T22:00:33.030Z,35.46
2019-02-14T22:03:01.395Z,35.46
2019-02-14T22:05:30.330Z,35.45
2019-02-14T22:07:59.574Z,35.46
2019-02-14T22:10:32.665Z,35.26
2019-02-14T22:13:02.423Z,35.17
2019-02-14T22:15:32.478Z,35.07
2019-02-14T22:18:00.801Z,34.65
2019-02-14T22:20:29.882Z,34.57
2019-02-14T22:22:59.840Z,34.61
2019-02-14T22:25:28.380Z,34.45
2019-02-14T22:27:57.545Z,34.86
2019-02-14T22:30:26.700Z,35.16
2019-02-14T22:32:56.574Z,35.11
2019-02-14T22:35:25.311Z,35.01
2019-02-14T22:37:53.325Z,35.24
2019-02-14T22:40:22.910Z,35.19
2019-02-14T22:42:51.590Z,35.28
2019-02-14T22:45:20.560Z,35.19
2019-02-14T22:49:10.571Z,35.31
2019-02-14T22:51:38.559Z,35.19
2019-02-14T22:54:06.624Z,35.19
2019-02-14T22:56:34.960Z,35.10
2019-02-14T22:59:02.199Z,35.19
2019-02-14T23:01:29.722Z,35.12
2019-02-14T23:03:57.898Z,35.26
2019-02-14T23:06:25.375Z,35.16
2019-02-14T23:09:12.902Z,35.16
2019-02-14T23:11:40.135Z,35.12
2019-02-14T23:14:07.688Z,34.37
2019-02-14T23:16:35.748Z,33.77
2019-02-14T23:19:03.620Z,34.45
2019-02-14T23:21:32.048Z,34.90
2019-02-14T23:23:59.981Z,35.18
2019-02-14T23:26:28.638Z,35.05
2019-02-14T23:28:56.164Z,35.05
2019-02-14T23:31:24.638Z,34.96
2019-02-14T23:33:52.477Z,34.89
2019-02-14T23:36:21.032Z,35.12
2019-02-14T23:38:49.118Z,34.92
2019-02-14T23:41:17.003Z,34.93
2019-02-14T23:43:45.187Z,34.97
2019-02-14T23:46:13.117Z,34.99
2019-02-14T23:48:41.542Z,35.11
2019-02-14T23:51:09.049Z,34.55
2019-02-14T23:53:36.650Z,34.60
2019-02-14T23:56:04.206Z,34.37
2019-02-14T23:58:31.769Z,34.44
